Main page
METAR-TAF:

METAR-TAF

Airports :

Nordholz Naval Airbase

Nordholz, Germany

latitude: 53-46N, longitude: 008-40E, elevation: 23 m

Current weather observation

The report was made 53 minutes ago, at 15:20 UTC
Wind 11 kt from the Northwest
Temperature 15°C
Humidity 59%
Pressure 1017 hPa
Visibility 10 km or more
Scattered clouds at a height of 2800 ft

METAR: ETMN 221520Z 31011KT 9999 SCT028 15/07 Q1017 BLU+BLU+

Time: 18:13 (16:13 UTC)

Forecast

The report was made 3 hours and 0 minutes ago, at 13:13 UTC
Forecast valid from 22 at 14 UTC to 22 at 23 UTC
Wind 10 kt from the Northwest
Visibility 10 km or more
Scattered clouds at a height of 2500 ft
Temporary
from 22 at 19 UTC to 22 at 23 UTC
Wind 6 kt from the West
Visibility 10 km or more
Broken clouds at a height of 3000 ft

TAF: ETMN 221313Z 2214/2223 31010KT 9999 NSW SCT025 TEMPO 2219/2223 28006KT 9999 NSW BKN030

Weather observations and forecasts of more than 4000 airports (METAR and TAF reports).

The available stations are represented by yellow and red dots on the map.

Hover mouse over dot to see the name of the station.

Then click to see weather observations and forecasts.

To change the map : click on the green buttons with a black cross to zoom in, on the green button with a dash to zoom out, or on the green arrows for adjacent maps.


METAR-TAF: